createdAt,value
2019-02-16T00:00:45.146Z,17.92
2019-02-16T00:06:47.355Z,15.63
2019-02-16T00:12:49.620Z,15.00
2019-02-16T00:18:51.782Z,13.00
2019-02-16T00:24:53.974Z,13.62
2019-02-16T00:30:56.149Z,15.80
2019-02-16T00:36:58.383Z,15.58
2019-02-16T00:43:00.750Z,13.50
2019-02-16T00:49:02.995Z,11.90
2019-02-16T00:55:07.144Z,11.40
2019-02-16T01:01:09.360Z,11.45
2019-02-16T01:07:11.615Z,12.58
2019-02-16T01:13:13.975Z,11.63
2019-02-16T01:19:16.108Z,11.88
2019-02-16T01:25:18.345Z,10.72
2019-02-16T01:31:20.624Z,9.80
2019-02-16T01:37:22.967Z,9.43
2019-02-16T01:43:25.133Z,10.32
2019-02-16T01:49:27.270Z,8.90
2019-02-16T01:55:29.456Z,9.55
2019-02-16T02:01:33.269Z,10.50
2019-02-16T02:07:35.439Z,8.78
2019-02-16T02:13:37.707Z,9.28
2019-02-16T02:19:39.855Z,8.38
2019-02-16T02:25:42.065Z,9.30
2019-02-16T02:31:45.858Z,7.95
2019-02-16T02:37:48.127Z,7.95
2019-02-16T02:43:50.492Z,7.62
2019-02-16T02:49:52.896Z,6.30
2019-02-16T02:55:55.064Z,7.72
2019-02-16T03:01:57.221Z,6.87
2019-02-16T03:08:00.639Z,6.75
2019-02-16T03:14:02.912Z,7.15
2019-02-16T03:20:05.327Z,7.95
2019-02-16T03:26:42.134Z,7.67
2019-02-16T03:33:16.681Z,7.72
2019-02-16T03:39:22.023Z,7.80
2019-02-16T03:45:24.266Z,7.03
2019-02-16T03:51:26.467Z,8.15
2019-02-16T03:57:28.704Z,7.35
2019-02-16T04:03:30.948Z,8.33
2019-02-16T04:09:33.323Z,7.17
2019-02-16T04:15:35.609Z,6.37
2019-02-16T04:21:37.797Z,8.28
2019-02-16T04:27:40.051Z,8.50
2019-02-16T04:33:42.548Z,7.62
2019-02-16T04:39:44.728Z,5.30
2019-02-16T04:45:47.237Z,7.12
2019-02-16T04:51:49.530Z,5.72
2019-02-16T04:57:51.807Z,7.08
2019-02-16T05:03:54.306Z,8.53
2019-02-16T05:09:56.616Z,9.53
2019-02-16T05:16:00.174Z,8.48
2019-02-16T05:22:02.373Z,10.18
2019-02-16T05:28:04.580Z,8.30
2019-02-16T05:34:06.776Z,6.22
2019-02-16T05:40:08.987Z,5.87
2019-02-16T05:46:11.403Z,7.12
2019-02-16T05:52:13.677Z,7.17
2019-02-16T05:58:15.876Z,9.45
2019-02-16T06:04:18.482Z,9.85
2019-02-16T06:10:20.767Z,8.60
2019-02-16T06:16:23.056Z,7.58
2019-02-16T06:22:25.355Z,8.45
2019-02-16T06:28:28.723Z,9.45
2019-02-16T06:34:32.463Z,7.90
2019-02-16T06:40:34.752Z,8.98
2019-02-16T06:46:36.920Z,9.78
2019-02-16T06:52:39.138Z,11.35
2019-02-16T06:58:41.337Z,11.90
2019-02-16T07:04:43.567Z,12.63
2019-02-16T07:10:45.732Z,12.00
2019-02-16T07:16:55.994Z,10.70
2019-02-16T07:23:00.343Z,10.78
2019-02-16T07:29:02.709Z,8.83
2019-02-16T07:35:05.730Z,9.90
2019-02-16T07:41:07.993Z,10.98
2019-02-16T07:47:15.074Z,9.88
2019-02-16T07:53:34.601Z,11.03
2019-02-16T07:59:56.859Z,11.18
2019-02-16T08:06:10.204Z,20.23
2019-02-16T08:12:14.334Z,16.90
2019-02-16T08:18:18.431Z,9.45
2019-02-16T08:24:22.660Z,8.30
2019-02-16T08:30:26.808Z,8.55
2019-02-16T08:36:42.193Z,8.93
2019-02-16T08:42:46.444Z,11.33
2019-02-16T08:48:53.533Z,10.35
2019-02-16T08:55:00.824Z,27.30
2019-02-16T09:01:13.943Z,46.15
2019-02-16T09:07:18.002Z,31.27
2019-02-16T09:13:22.036Z,29.87
2019-02-16T09:19:26.179Z,30.85
2019-02-16T09:25:32.509Z,30.08
2019-02-16T09:31:48.820Z,27.05
2019-02-16T09:37:53.000Z,28.57
2019-02-16T09:44:12.262Z,31.00
2019-02-16T09:50:22.392Z,29.77
2019-02-16T09:56:35.730Z,31.33
2019-02-16T10:02:56.281Z,31.45
2019-02-16T10:09:09.416Z,29.27
2019-02-16T10:15:28.777Z,26.80
2019-02-16T10:21:35.796Z,22.17
2019-02-16T10:27:56.637Z,20.32
2019-02-16T10:34:12.806Z,16.20
2019-02-16T10:40:19.863Z,15.95
2019-02-16T10:46:40.498Z,15.18
2019-02-16T10:52:53.651Z,16.50
2019-02-16T10:59:14.637Z,16.65
2019-02-16T11:05:21.736Z,13.90
2019-02-16T11:11:35.033Z,13.90
2019-02-16T11:17:39.222Z,13.20
2019-02-16T11:23:45.362Z,14.10
2019-02-16T11:29:54.346Z,12.68
2019-02-16T11:36:10.552Z,12.63
2019-02-16T11:42:31.472Z,13.70
2019-02-16T11:48:53.855Z,12.85
2019-02-16T11:54:58.145Z,13.48
2019-02-16T12:01:05.130Z,13.05
2019-02-16T12:07:27.572Z,12.37
2019-02-16T12:13:31.744Z,11.22
2019-02-16T12:19:35.834Z,11.30
2019-02-16T12:25:56.712Z,11.35
2019-02-16T12:32:15.503Z,11.50
2019-02-16T12:38:25.250Z,12.37
2019-02-16T12:44:35.353Z,11.97
2019-02-16T12:50:56.199Z,11.10
2019-02-16T12:57:02.441Z,10.18
2019-02-16T13:03:18.948Z,8.20
2019-02-16T13:09:40.393Z,8.48
2019-02-16T13:15:56.387Z,10.05
2019-02-16T13:22:01.379Z,9.03
2019-02-16T13:28:23.795Z,8.88
2019-02-16T13:34:28.956Z,9.05
2019-02-16T13:40:39.022Z,8.83
2019-02-16T13:46:43.220Z,9.20
2019-02-16T13:52:47.383Z,8.30
2019-02-16T13:58:54.465Z,8.20
2019-02-16T14:04:58.625Z,7.85
2019-02-16T14:11:29.383Z,8.50
2019-02-16T14:17:36.254Z,7.53
2019-02-16T14:23:38.545Z,7.95
2019-02-16T14:29:40.802Z,7.72
2019-02-16T14:35:43.287Z,7.35
2019-02-16T14:41:45.519Z,6.97
2019-02-16T14:47:47.889Z,7.05
2019-02-16T14:53:50.108Z,6.80
2019-02-16T14:59:52.345Z,7.53
2019-02-16T15:05:56.004Z,7.03
2019-02-16T15:11:58.432Z,7.03
2019-02-16T15:18:00.822Z,8.05
2019-02-16T15:24:03.167Z,7.40
2019-02-16T15:30:08.882Z,6.92
2019-02-16T15:36:11.287Z,6.67
2019-02-16T15:42:15.776Z,6.70
2019-02-16T15:48:20.141Z,6.70
2019-02-16T15:54:22.358Z,7.10
2019-02-16T16:00:28.334Z,6.50
2019-02-16T16:06:31.677Z,6.90
2019-02-16T16:12:44.702Z,7.90
2019-02-16T16:18:55.218Z,8.28
2019-02-16T16:25:03.323Z,10.05
2019-02-16T16:31:23.702Z,10.40
2019-02-16T16:37:41.423Z,9.65
2019-02-16T16:43:57.731Z,10.08
2019-02-16T16:50:04.571Z,10.08
2019-02-16T16:56:28.455Z,10.13
2019-02-16T17:02:45.286Z,10.38
2019-02-16T17:08:58.907Z,9.75
2019-02-16T17:15:11.996Z,12.78
2019-02-16T17:21:34.253Z,10.72
2019-02-16T17:27:55.125Z,11.10
2019-02-16T17:34:05.417Z,11.78
2019-02-16T17:40:29.213Z,13.10
2019-02-16T17:46:50.164Z,15.70
2019-02-16T17:52:55.246Z,14.83
2019-02-16T17:59:08.692Z,16.02
2019-02-16T18:05:30.949Z,16.05
2019-02-16T18:11:44.041Z,19.05
2019-02-16T18:17:54.063Z,23.90
2019-02-16T18:24:01.205Z,21.52
2019-02-16T18:30:08.434Z,19.20
2019-02-16T18:36:18.498Z,15.43
2019-02-16T18:42:39.627Z,14.95
2019-02-16T18:48:47.187Z,14.80
2019-02-16T18:55:10.645Z,13.85
2019-02-16T19:01:12.303Z,14.28
2019-02-16T19:07:18.994Z,14.55
2019-02-16T19:13:23.134Z,15.35
2019-02-16T19:19:27.289Z,16.42
2019-02-16T19:25:31.459Z,14.65
2019-02-16T19:31:44.640Z,15.75
2019-02-16T19:37:51.416Z,49.55
2019-02-16T19:50:14.320Z,17.73
2019-02-16T19:56:18.481Z,15.68
2019-02-16T20:08:40.786Z,43.68
2019-02-16T20:14:48.096Z,29.98
2019-02-16T20:20:52.200Z,20.65
2019-02-16T20:27:02.073Z,19.55
2019-02-16T20:33:15.129Z,27.25
2019-02-16T20:39:20.673Z,16.52
2019-02-16T20:45:26.877Z,13.53
2019-02-16T20:51:33.638Z,13.03
2019-02-16T20:57:49.943Z,12.75
2019-02-16T21:10:07.618Z,13.98
2019-02-16T21:16:12.003Z,12.93
2019-02-16T21:22:34.976Z,14.15
2019-02-16T21:28:44.985Z,13.15
2019-02-16T21:34:49.080Z,15.45
2019-02-16T21:40:56.143Z,17.80
2019-02-16T21:47:02.799Z,13.85
2019-02-16T21:53:21.351Z,14.00
2019-02-16T21:59:28.907Z,12.78
2019-02-16T22:05:49.500Z,14.65
2019-02-16T22:11:59.555Z,13.03
2019-02-16T22:18:01.964Z,11.80
2019-02-16T22:24:04.220Z,13.60
2019-02-16T22:30:07.267Z,14.58
2019-02-16T22:36:09.396Z,12.70
2019-02-16T22:42:11.664Z,13.18
2019-02-16T22:48:15.336Z,12.33
2019-02-16T22:54:17.474Z,11.93
2019-02-16T23:00:27.501Z,11.22
2019-02-16T23:06:29.642Z,10.78
2019-02-16T23:12:31.776Z,12.82
2019-02-16T23:18:33.968Z,13.13
2019-02-16T23:24:37.268Z,10.68
2019-02-16T23:30:39.570Z,10.28
2019-02-16T23:36:41.717Z,10.70
2019-02-16T23:42:44.007Z,9.93
2019-02-16T23:48:48.385Z,11.60
2019-02-16T23:54:50.712Z,10.93
